createdAt,value
2022-08-09T00:02:42.837Z,100692.88
2022-08-09T00:07:52.326Z,100698.25
2022-08-09T00:12:56.044Z,100687.53
2022-08-09T00:18:06.135Z,100694.50
2022-08-09T00:23:55.232Z,100699.34
2022-08-09T00:28:35.383Z,100696.34
2022-08-09T00:33:49.203Z,100700.41
2022-08-09T00:38:53.571Z,100701.94
2022-08-09T00:44:15.307Z,100700.59
2022-08-09T00:49:17.218Z,100699.28
2022-08-09T00:54:23.065Z,100694.94
2022-08-09T00:59:41.241Z,100699.94
2022-08-09T01:05:23.170Z,100705.66
2022-08-09T01:10:58.379Z,100708.03
2022-08-09T01:16:04.093Z,100702.53
2022-08-09T01:21:44.567Z,100708.91
2022-08-09T01:27:20.896Z,100700.78
2022-08-09T01:32:36.107Z,100700.97
2022-08-09T01:38:05.522Z,100700.75
2022-08-09T01:43:05.370Z,100707.53
2022-08-09T01:48:10.270Z,100694.34
2022-08-09T01:53:19.460Z,100695.84
2022-08-09T01:58:23.985Z,100699.75
2022-08-09T02:03:31.447Z,100699.72
2022-08-09T02:08:56.688Z,100703.97
2022-08-09T02:14:07.208Z,100707.63
2022-08-09T02:19:10.452Z,100709.13
2022-08-09T02:24:26.232Z,100711.94
2022-08-09T02:29:36.340Z,100707.06
2022-08-09T02:34:41.373Z,100708.63
2022-08-09T02:40:10.543Z,100712.97
2022-08-09T02:45:21.400Z,100707.94
2022-08-09T02:50:38.389Z,100709.13
2022-08-09T02:55:57.261Z,100708.38
2022-08-09T03:01:04.362Z,100703.00
2022-08-09T03:06:14.645Z,100697.81
2022-08-09T03:12:05.372Z,100698.94
2022-08-09T03:16:44.986Z,100706.38
2022-08-09T03:21:51.036Z,100709.34
2022-08-09T03:26:54.199Z,100708.66
2022-08-09T03:31:59.831Z,100716.50
2022-08-09T03:37:54.411Z,100721.13
2022-08-09T03:42:28.843Z,100723.97
2022-08-09T03:47:30.912Z,100730.00
2022-08-09T03:52:43.799Z,100732.94
2022-08-09T03:57:57.490Z,100739.63
2022-08-09T04:03:08.815Z,100732.13
2022-08-09T04:08:28.772Z,100738.69
2022-08-09T04:14:37.484Z,100741.31
2022-08-09T04:18:53.181Z,100749.47
2022-08-09T04:23:57.732Z,100745.81
2022-08-09T04:29:02.453Z,100756.88
2022-08-09T04:34:09.849Z,100756.88
2022-08-09T04:39:11.937Z,100765.44
2022-08-09T04:44:14.486Z,100769.81
2022-08-09T04:49:16.673Z,100765.69
2022-08-09T04:54:23.959Z,100758.31
2022-08-09T04:59:25.989Z,100755.91
2022-08-09T05:04:31.975Z,100752.75
2022-08-09T05:09:45.502Z,100753.44
2022-08-09T05:14:51.725Z,100751.53
2022-08-09T05:19:56.698Z,100754.66
2022-08-09T05:25:02.432Z,100774.22
2022-08-09T05:30:04.989Z,100784.59
2022-08-09T05:35:08.973Z,100783.84
2022-08-09T05:40:11.570Z,100791.56
2022-08-09T05:45:14.231Z,100792.81
2022-08-09T05:50:31.799Z,100805.38
2022-08-09T05:55:37.655Z,100808.97
2022-08-09T06:00:40.084Z,100809.44
2022-08-09T06:05:54.756Z,100810.00
2022-08-09T06:11:16.330Z,100814.97
2022-08-09T06:16:18.588Z,100812.94
2022-08-09T06:21:20.354Z,100813.31
2022-08-09T06:26:28.513Z,100812.00
2022-08-09T06:31:40.203Z,100821.25
2022-08-09T06:36:58.983Z,100822.78
2022-08-09T06:42:09.053Z,100830.28
2022-08-09T06:47:14.033Z,100821.69
2022-08-09T06:52:17.734Z,100824.84
2022-08-09T06:57:19.958Z,100826.00
2022-08-09T07:02:41.763Z,100818.63
2022-08-09T07:08:00.168Z,100828.06
2022-08-09T07:13:18.616Z,100822.66
2022-08-09T07:18:25.231Z,100823.03
2022-08-09T07:23:28.012Z,100824.44
2022-08-09T07:28:37.890Z,100828.09
2022-08-09T07:33:59.950Z,100836.28
2022-08-09T07:39:02.398Z,100830.53
2022-08-09T07:44:04.887Z,100816.44
2022-08-09T07:49:08.288Z,100822.06
2022-08-09T07:54:27.597Z,100801.91
2022-08-09T07:59:34.695Z,100795.16
2022-08-09T08:04:48.732Z,100795.16
2022-08-09T08:10:05.653Z,100794.94
2022-08-09T08:15:16.684Z,100793.38
2022-08-09T08:20:29.461Z,100791.06
2022-08-09T08:25:44.406Z,100792.16
2022-08-09T08:30:48.818Z,100790.75
2022-08-09T08:35:59.432Z,100783.31
2022-08-09T08:41:05.586Z,100783.44
2022-08-09T08:46:32.980Z,100770.91
2022-08-09T08:51:38.782Z,100772.56
2022-08-09T08:56:55.502Z,100771.47
2022-08-09T09:02:00.320Z,100767.97
2022-08-09T09:07:09.595Z,100764.34
2022-08-09T09:12:16.682Z,100769.84
2022-08-09T09:17:19.100Z,100769.34
2022-08-09T09:22:26.902Z,100766.41
2022-08-09T09:28:04.551Z,100772.38
2022-08-09T09:33:30.572Z,100763.16
2022-08-09T09:38:49.109Z,100761.97
2022-08-09T09:44:15.662Z,100759.22
2022-08-09T09:49:55.958Z,100749.72
2022-08-09T09:54:55.710Z,100751.44
2022-08-09T09:59:57.692Z,100756.72
2022-08-09T10:05:08.355Z,100756.41
2022-08-09T10:10:11.336Z,100753.00
2022-08-09T10:15:17.674Z,100751.25
2022-08-09T10:20:32.831Z,100751.22
2022-08-09T10:26:07.679Z,100742.78
2022-08-09T10:36:22.043Z,100733.59
2022-08-09T10:41:24.357Z,100735.31
2022-08-09T10:46:54.119Z,100729.66
2022-08-09T10:52:00.322Z,100717.53
2022-08-09T10:57:06.604Z,100717.63
2022-08-09T11:03:13.339Z,100712.13
2022-08-09T11:07:57.463Z,100708.16
2022-08-09T11:13:49.377Z,100711.50
2022-08-09T11:18:46.177Z,100717.16
2022-08-09T11:23:59.870Z,100713.81
2022-08-09T11:29:01.636Z,100714.31
2022-08-09T11:34:09.468Z,100712.78
2022-08-09T11:39:11.464Z,100701.88
2022-08-09T11:44:13.559Z,100709.72
2022-08-09T11:49:16.858Z,100701.00
2022-08-09T11:54:27.887Z,100705.53
2022-08-09T11:59:33.623Z,100700.09
2022-08-09T12:04:38.108Z,100705.59
2022-08-09T12:09:50.335Z,100701.00
2022-08-09T12:15:04.066Z,100695.50
2022-08-09T12:20:21.370Z,100684.16
2022-08-09T12:25:35.692Z,100678.00
2022-08-09T12:30:39.711Z,100677.44
2022-08-09T12:35:42.841Z,100664.97
2022-08-09T12:40:46.770Z,100675.13
2022-08-09T12:45:59.809Z,100668.41
2022-08-09T12:51:03.666Z,100666.66
2022-08-09T12:56:12.832Z,100660.16
2022-08-09T13:01:28.300Z,100657.03
2022-08-09T13:06:36.615Z,100658.59
2022-08-09T13:11:44.213Z,100654.28
2022-08-09T13:16:57.254Z,100656.63
2022-08-09T13:22:38.316Z,100648.63
2022-08-09T13:27:39.960Z,100643.25
2022-08-09T13:32:55.325Z,100643.09
2022-08-09T13:37:57.225Z,100633.47
2022-08-09T13:43:00.804Z,100628.13
2022-08-09T13:48:10.911Z,100627.84
2022-08-09T13:53:13.004Z,100615.09
2022-08-09T13:58:14.750Z,100622.69
2022-08-09T14:04:02.177Z,100612.81
2022-08-09T14:08:41.343Z,100608.03
2022-08-09T14:14:25.021Z,100620.34
2022-08-09T14:19:07.177Z,100622.84
2022-08-09T14:24:22.039Z,100615.19
2022-08-09T14:30:34.966Z,100613.78
2022-08-09T14:34:55.570Z,100601.34
2022-08-09T14:39:58.608Z,100609.31
2022-08-09T14:46:38.861Z,100602.72
2022-08-09T14:50:31.647Z,100594.00
2022-08-09T14:55:34.305Z,100596.50
2022-08-09T15:00:36.695Z,100600.03
2022-08-09T15:05:39.118Z,100595.03
2022-08-09T15:10:41.775Z,100597.75
2022-08-09T15:15:43.851Z,100598.44
2022-08-09T15:21:58.349Z,100597.38
2022-08-09T15:26:09.141Z,100589.44
2022-08-09T15:31:21.127Z,100577.41
2022-08-09T15:36:30.670Z,100568.19
2022-08-09T15:41:32.732Z,100567.97
2022-08-09T15:46:35.289Z,100570.09
2022-08-09T15:52:03.231Z,100571.31
2022-08-09T15:56:58.991Z,100558.03
2022-08-09T16:02:00.778Z,100548.63
2022-08-09T16:07:02.965Z,100543.66
2022-08-09T16:12:06.162Z,100545.94
2022-08-09T16:17:16.989Z,100545.31
2022-08-09T16:22:19.049Z,100548.25
2022-08-09T16:27:22.195Z,100547.59
2022-08-09T16:32:53.400Z,100553.13
2022-08-09T16:37:56.813Z,100547.47
2022-08-09T16:43:02.277Z,100554.97
2022-08-09T16:48:41.446Z,100552.13
2022-08-09T16:53:33.932Z,100555.78
2022-08-09T16:58:36.799Z,100554.59
2022-08-09T17:03:38.772Z,100540.00
2022-08-09T17:08:58.113Z,100554.84
2022-08-09T17:14:05.271Z,100554.97
2022-08-09T17:19:07.025Z,100558.22
2022-08-09T17:24:28.188Z,100564.44
2022-08-09T17:29:37.883Z,100565.09
2022-08-09T17:35:07.978Z,100574.13
2022-08-09T17:40:06.953Z,100568.84
2022-08-09T17:45:27.442Z,100568.91
2022-08-09T17:50:41.830Z,100567.34
2022-08-09T17:56:03.395Z,100578.56
2022-08-09T18:01:09.471Z,100578.81
2022-08-09T18:06:14.925Z,100582.38
2022-08-09T18:12:05.925Z,100588.91
2022-08-09T18:16:57.864Z,100586.53
2022-08-09T18:22:01.074Z,100590.88
2022-08-09T18:27:03.760Z,100592.88
2022-08-09T18:32:09.047Z,100604.16
2022-08-09T18:37:48.661Z,100602.25
2022-08-09T18:42:33.292Z,100604.44
2022-08-09T18:47:37.550Z,100606.94
2022-08-09T18:52:39.820Z,100617.00
2022-08-09T18:57:45.445Z,100617.25
2022-08-09T19:02:48.587Z,100626.41
2022-08-09T19:08:04.282Z,100632.81
2022-08-09T19:13:19.976Z,100637.19
2022-08-09T19:18:35.767Z,100640.59
2022-08-09T19:24:32.871Z,100646.34
2022-08-09T19:29:15.138Z,100648.16
2022-08-09T19:34:21.409Z,100663.75
2022-08-09T19:39:43.818Z,100673.09
2022-08-09T19:44:50.519Z,100673.59
2022-08-09T19:50:05.261Z,100672.81
2022-08-09T19:55:15.235Z,100675.63
2022-08-09T20:00:17.632Z,100682.28
2022-08-09T20:05:19.621Z,100694.56
2022-08-09T20:10:27.891Z,100693.13
2022-08-09T20:16:34.395Z,100700.09
2022-08-09T20:20:58.071Z,100703.59
2022-08-09T20:25:59.812Z,100706.06
2022-08-09T20:31:04.607Z,100710.81
2022-08-09T20:36:07.058Z,100720.31
2022-08-09T20:41:09.347Z,100717.91
2022-08-09T20:46:33.396Z,100728.44
2022-08-09T20:51:40.929Z,100725.00
2022-08-09T20:56:47.233Z,100719.88
2022-08-09T21:01:53.594Z,100735.22
2022-08-09T21:06:55.573Z,100738.03
2022-08-09T21:18:21.068Z,100736.78
2022-08-09T21:22:37.909Z,100742.22
2022-08-09T21:27:50.860Z,100744.81
2022-08-09T21:32:54.520Z,100741.59
2022-08-09T21:38:00.344Z,100740.63
2022-08-09T21:43:06.235Z,100746.25
2022-08-09T21:48:08.084Z,100751.16
2022-08-09T21:53:24.102Z,100742.63
2022-08-09T21:58:31.508Z,100761.13
2022-08-09T22:03:33.324Z,100758.59
2022-08-09T22:08:38.481Z,100755.34
2022-08-09T22:13:46.037Z,100758.03
2022-08-09T22:18:54.327Z,100767.00
2022-08-09T22:23:59.226Z,100762.91
2022-08-09T22:29:05.401Z,100760.25
2022-08-09T22:34:14.713Z,100770.75
2022-08-09T22:39:47.284Z,100774.50
2022-08-09T22:44:38.711Z,100773.66
2022-08-09T22:49:48.232Z,100775.16
2022-08-09T22:54:53.955Z,100767.59
2022-08-09T22:59:59.289Z,100782.19
2022-08-09T23:05:01.350Z,100781.25
2022-08-09T23:10:08.154Z,100783.22
2022-08-09T23:15:10.514Z,100778.97
2022-08-09T23:20:12.323Z,100773.41
2022-08-09T23:25:14.271Z,100767.53
2022-08-09T23:30:16.528Z,100766.19
2022-08-09T23:35:18.334Z,100766.63
2022-08-09T23:40:20.149Z,100773.22
2022-08-09T23:45:37.526Z,100769.31
2022-08-09T23:50:40.541Z,100777.94
2022-08-09T23:55:49.279Z,100774.81
